IE-0045 weather

Maganey Airstrip
County Kildare, Ireland

Public forecast

Using degrees Celsius for public forecast. Weather courtesy of forecast.io.

Closest aviation weather report (METAR) to Maganey Airstrip

Closest report is Casement Air Base, 29.7 nm (55.0 km) NE. Retrieved 2020/08/05 04:00 UTC (34 minutes ago):

EIME 050400Z 22014KT 9999 OVC009 17/16 Q1002

Closest aviation forecast (TAF) to Maganey Airstrip

Closest forecast is Dublin Airport, 39.4 nm (72.9 km) NE. Retrieved 2020-08-05 00:10 UTC (4 hours ago):

TAF EIDW 042300Z 0500/0524 21014KT 9999 SCT010 BKN017 TEMPO 0500/0513 5000 -RA BKN010 PROB30 TEMPO 0510/0514 24016G27KT 2500 +SHRA BKN007 SCT030CB BECMG 0512/0514 27014KT BECMG 0515/0517 24010KT